Ali Cat — MZCL8 — position and weather

sailwx.info

Track history (hours):
 
Tides and Currents Weather Stations Pressure Air Temp Water Temp Dewpoint Dewpoint Depression Visibility Wind Speed Wind Dir Waves Ship Positions

Ali Cat

Operator: MRCC Clyde

Last reported at 2019-Jul-16 09:34 UTC. Time now 2019-Jul-16 10:20 UTC.
Position N 55°58' W 004°51'.

Length 19 m.

Type: Passenger vessel. MMSI: 235056506.

Date/timePositionNaut miles runAvg speedWind from/ knotsBaromVisibWave heightAir tempDewpointWater temp
2019-Jul-16 09:34N 55°58' W 004°51'111.1
2019-Jul-16 09:30N 55°57' W 004°52'0 0.4
2019-Jul-16 08:33N 55°58' W 004°52'110.8
2019-Jul-16 08:28N 55°57' W 004°53'0 0.2
2019-Jul-16 07:28N 55°57' W 004°53'1 0.8
2019-Jul-16 06:29N 55°57' W 004°52'1 0.1
2019-Jul-15 20:57N 55°58' W 004°50'0 0.1
2019-Jul-15 19:36N 55°58' W 004°51'210.7
2019-Jul-15 19:27N 55°57' W 004°53'0 0.3
2019-Jul-15 18:28N 55°57' W 004°53'1 0.7
2019-Jul-15 17:32N 55°57' W 004°52'110.4
2019-Jul-15 17:25N 55°57' W 004°54'2 2.0
2019-Jul-15 16:35N 55°57' W 004°51'110.5
2019-Jul-15 16:28N 55°57' W 004°53'1 0.7
2019-Jul-15 15:33N 55°57' W 004°52'010.1
2019-Jul-15 15:30N 55°57' W 004°53'0 0.2
2019-Jul-15 14:02N 55°57' W 004°53'110.5
2019-Jul-15 13:57N 55°57' W 004°55'2 2.2
2019-Jul-15 13:08N 55°57' W 004°52'210.1
2019-Jul-15 12:57N 55°57' W 004°55'2 1.8
2019-Jul-15 11:36N 55°58' W 004°51'110.4
2019-Jul-15 11:30N 55°57' W 004°53'1 1.3
2019-Jul-15 10:37N 55°57' W 004°51'110.2
2019-Jul-15 10:30N 55°57' W 004°53'1 0.2
2019-Jul-15 06:30N 55°57' W 004°51'1 0.0
2019-Jul-14 15:01N 55°57' W 004°52'110.3
2019-Jul-14 14:58N 55°57' W 004°53'0 0.4
2019-Jul-14 13:56N 55°57' W 004°54'1 1.4
2019-Jul-14 13:03N 55°57' W 004°52'210.1
2019-Jul-14 12:52N 55°57' W 004°55'2 0.1
2019-Jul-13 21:01N 55°57' W 004°52'010.7
2019-Jul-13 20:59N 55°57' W 004°53'0 0.2
2019-Jul-13 19:30N 55°57' W 004°52'1 0.7
2019-Jul-13 18:26N 55°57' W 004°54'0 0.5
2019-Jul-13 17:29N 55°57' W 004°53'2 2.6
2019-Jul-13 16:41N 55°58' W 004°49'210.3
2019-Jul-13 16:27N 55°57' W 004°53'1 0.7
2019-Jul-13 15:31N 55°57' W 004°52'110.2
2019-Jul-13 15:26N 55°57' W 004°54'1 0.1
2019-Jul-13 11:30N 55°57' W 004°53'2 2.6
2019-Jul-13 10:42N 55°58' W 004°49'210.2
2019-Jul-13 10:29N 55°57' W 004°53'1 1.0
2019-Jul-13 09:33N 55°57' W 004°51'110.4
2019-Jul-13 09:28N 55°57' W 004°53'1 1.3
2019-Jul-13 08:35N 55°57' W 004°51'210.7
2019-Jul-13 08:25N 55°57' W 004°54'1 1.3
2019-Jul-13 07:31N 55°57' W 004°52'110.5
2019-Jul-13 07:23N 55°57' W 004°55'1 1.0
2019-Jul-13 06:24N 55°57' W 004°53'1 0.1
2019-Jul-12 20:35N 55°57' W 004°55'1 1.2
2019-Jul-12 19:27N 55°57' W 004°53'0 0.1
2019-Jul-12 18:28N 55°57' W 004°53'2 3.2
2019-Jul-12 17:43N 55°58' W 004°49'310.6
2019-Jul-12 17:26N 55°57' W 004°54'2 1.9
2019-Jul-12 16:34N 55°58' W 004°51'110.4
2019-Jul-12 16:28N 55°57' W 004°53'1 0.7
2019-Jul-12 15:32N 55°57' W 004°52'110.3
2019-Jul-12 15:28N 55°57' W 004°53'2 1.6
2019-Jul-12 14:12N 55°58' W 004°50'210.1
2019-Jul-12 13:58N 55°57' W 004°54'1 0.8
2019-Jul-12 13:02N 55°57' W 004°52'0 9.7
2019-Jul-12 13:00N 55°57' W 004°53'1 0.8
2019-Jul-12 11:36N 55°57' W 004°51'210.0
2019-Jul-12 11:23N 55°57' W 004°55'0 0.4
2019-Jul-12 10:26N 55°57' W 004°54'1 1.1
2019-Jul-12 09:30N 55°57' W 004°53'0 0.2
2019-Jul-12 08:29N 55°57' W 004°53'0 0.2
2019-Jul-12 07:30N 55°57' W 004°53'0 0.3
2019-Jul-12 06:27N 55°57' W 004°52'1 0.1
2019-Jul-11 20:44N 55°57' W 004°54'2 1.8
2019-Jul-11 19:36N 55°58' W 004°51'210.8
2019-Jul-11 19:27N 55°57' W 004°53'1 1.0
2019-Jul-11 18:20N 55°57' W 004°55'2 2.4
2019-Jul-11 17:32N 55°57' W 004°52'110.9
2019-Jul-11 17:26N 55°57' W 004°54'0 0.4
2019-Jul-11 16:24N 55°57' W 004°54'0 0.4
2019-Jul-11 15:27N 55°57' W 004°54'1 0.2
2019-Jul-11 11:13N 55°57' W 004°55'1 1.0
2019-Jul-11 10:26N 55°57' W 004°54'2 2.1
2019-Jul-11 09:36N 55°58' W 004°51'111.1
2019-Jul-11 09:29N 55°57' W 004°53'0 0.4
2019-Jul-11 08:32N 55°57' W 004°52'110.5
2019-Jul-11 08:25N 55°57' W 004°54'1 1.6
2019-Jul-11 07:33N 55°57' W 004°52'210.8
2019-Jul-11 07:22N 55°57' W 004°55'3 3.3
2019-Jul-11 06:33N 55°58' W 004°51'210.9
2019-Jul-11 06:23N 55°57' W 004°53'0 0.0
2019-Jul-10 20:46N 55°57' W 004°53'1 0.7
2019-Jul-10 19:18N 55°57' W 004°55'2 2.0
2019-Jul-10 18:30N 55°57' W 004°53'1 0.7
2019-Jul-10 17:26N 55°57' W 004°54'1 0.8
2019-Jul-10 16:30N 55°57' W 004°53'1 1.0
2019-Jul-10 15:34N 55°58' W 004°51'111.0
2019-Jul-10 15:29N 55°57' W 004°53'1 0.4
2019-Jul-10 14:04N 55°57' W 004°52'210.8
2019-Jul-10 13:54N 55°57' W 004°55'1 0.9
2019-Jul-10 12:58N 55°57' W 004°54'0 0.2
2019-Jul-10 11:28N 55°57' W 004°53'1 1.7
2019-Jul-10 10:38N 55°58' W 004°51'110.9
2019-Jul-10 10:30N 55°57' W 004°53'1 0.8
2019-Jul-10 09:32N 55°57' W 004°52'110.5
2019-Jul-10 09:24N 55°57' W 004°54'3 4.3
2019-Jul-10 08:41N 55°58' W 004°49'210.9
2019-Jul-10 08:28N 55°57' W 004°53'1 1.1
2019-Jul-10 07:32N 55°57' W 004°52'111.1
2019-Jul-10 07:27N 55°57' W 004°53'1 1.2
2019-Jul-10 06:30N 55°58' W 004°52'1 1.0
2019-Jul-10 05:56N 55°58' W 004°51'1 0.1
2019-Jul-09 20:54N 55°58' W 004°51'0 0.1
2019-Jul-09 19:36N 55°58' W 004°51'110.6
2019-Jul-09 19:28N 55°57' W 004°53'0 0.4
2019-Jul-09 18:25N 55°57' W 004°54'1 0.9
2019-Jul-09 17:29N 55°57' W 004°52'1 0.8
2019-Jul-09 16:33N 55°58' W 004°51'111.2
2019-Jul-09 16:27N 55°57' W 004°53'0 0.4
2019-Jul-09 15:29N 55°57' W 004°53'1 0.2
2019-Jul-09 11:33N 55°58' W 004°51'111.3
2019-Jul-09 11:30N 55°57' W 004°52'1 1.0
2019-Jul-09 10:35N 55°58' W 004°51'110.8
2019-Jul-09 10:28N 55°57' W 004°53'1 1.1
2019-Jul-09 09:34N 55°57' W 004°51'110.8
2019-Jul-09 09:29N 55°57' W 004°53'1 1.5
2019-Jul-09 08:36N 55°58' W 004°51'110.1
2019-Jul-09 08:30N 55°57' W 004°52'1 1.1
2019-Jul-09 07:37N 55°58' W 004°51'110.6
2019-Jul-09 07:29N 55°57' W 004°53'1 1.3
2019-Jul-09 06:30N 55°58' W 004°51'0 0.6
2019-Jul-09 05:51N 55°58' W 004°51'2 0.2
2019-Jul-08 20:46N 55°57' W 004°53'1 0.9
2019-Jul-08 19:33N 55°57' W 004°51'010.1
2019-Jul-08 19:30N 55°57' W 004°52'1 1.1
2019-Jul-08 18:37N 55°58' W 004°51'2 9.7
2019-Jul-08 18:22N 55°57' W 004°55'2 2.2
2019-Jul-08 17:32N 55°57' W 004°52'110.1
2019-Jul-08 17:29N 55°57' W 004°53'1 0.8
2019-Jul-08 16:33N 55°58' W 004°51'010.5
2019-Jul-08 16:30N 55°57' W 004°52'1 0.9
2019-Jul-08 15:25N 55°57' W 004°54'0 0.2
2019-Jul-08 13:53N 55°57' W 004°55'2 2.2
2019-Jul-08 13:04N 55°57' W 004°51'110.8
2019-Jul-08 12:56N 55°57' W 004°54'2 1.3
2019-Jul-08 11:35N 55°58' W 004°51'110.8
2019-Jul-08 11:30N 55°57' W 004°52'1 1.1
2019-Jul-08 10:36N 55°58' W 004°51'110.5
2019-Jul-08 10:28N 55°57' W 004°53'2 2.1
2019-Jul-08 09:37N 55°58' W 004°50'210.6
2019-Jul-08 09:23N 55°57' W 004°54'1 1.7
2019-Jul-08 08:33N 55°57' W 004°52'1 9.4
2019-Jul-08 08:26N 55°57' W 004°54'1 1.7
2019-Jul-08 07:36N 55°57' W 004°51'210.6
2019-Jul-08 07:27N 55°57' W 004°54'0 0.3
2019-Jul-08 06:18N 55°57' W 004°54'2 0.1
2019-Jul-07 15:06N 55°58' W 004°51'110.0
2019-Jul-07 14:59N 55°57' W 004°53'1 1.5
2019-Jul-07 14:07N 55°58' W 004°50'210.2
2019-Jul-07 13:57N 55°57' W 004°53'0 0.0
2019-Jul-07 12:56N 55°57' W 004°53'1 0.1
2019-Jul-06 20:52N 55°57' W 004°52'1 0.4
2019-Jul-06 19:29N 55°57' W 004°52'1 0.7
2019-Jul-06 17:38N 55°58' W 004°50'110.1
2019-Jul-06 17:30N 55°57' W 004°52'0 0.2
2019-Jul-06 16:31N 55°57' W 004°52'110.2
2019-Jul-06 16:25N 55°57' W 004°54'1 1.1
2019-Jul-06 15:31N 55°57' W 004°52'0 9.8
2019-Jul-06 15:28N 55°57' W 004°53'1 0.3
2019-Jul-06 11:35N 55°58' W 004°51'110.8
2019-Jul-06 11:29N 55°57' W 004°53'1 0.6
2019-Jul-06 10:33N 55°57' W 004°52'210.6
2019-Jul-06 10:23N 55°57' W 004°55'  
Track history (hours):
 
Tides and Currents Weather Stations Pressure Air Temp Water Temp Dewpoint Dewpoint Depression Visibility Wind Speed Wind Dir Waves Ship Positions

Ali Cat

Operator: MRCC Clyde

Last reported at 2019-Jul-16 09:34 UTC. Time now 2019-Jul-16 10:20 UTC.
Position N 55°58' W 004°51'.

Length 19 m.

Type: Passenger vessel. MMSI: 235056506.

Date/timePositionNaut miles runAvg speedWind from/ knotsBaromVisibWave heightAir tempDewpointWater temp
2019-Jul-16 09:34N 55°58' W 004°51'111.1
2019-Jul-16 09:30N 55°57' W 004°52'0 0.4
2019-Jul-16 08:33N 55°58' W 004°52'110.8
2019-Jul-16 08:28N 55°57' W 004°53'0 0.2
2019-Jul-16 07:28N 55°57' W 004°53'1 0.8
2019-Jul-16 06:29N 55°57' W 004°52'1 0.1
2019-Jul-15 20:57N 55°58' W 004°50'0 0.1
2019-Jul-15 19:36N 55°58' W 004°51'210.7
2019-Jul-15 19:27N 55°57' W 004°53'0 0.3
2019-Jul-15 18:28N 55°57' W 004°53'1 0.7
2019-Jul-15 17:32N 55°57' W 004°52'110.4
2019-Jul-15 17:25N 55°57' W 004°54'2 2.0
2019-Jul-15 16:35N 55°57' W 004°51'110.5
2019-Jul-15 16:28N 55°57' W 004°53'1 0.7
2019-Jul-15 15:33N 55°57' W 004°52'010.1
2019-Jul-15 15:30N 55°57' W 004°53'0 0.2
2019-Jul-15 14:02N 55°57' W 004°53'110.5
2019-Jul-15 13:57N 55°57' W 004°55'2 2.2
2019-Jul-15 13:08N 55°57' W 004°52'210.1
2019-Jul-15 12:57N 55°57' W 004°55'2 1.8
2019-Jul-15 11:36N 55°58' W 004°51'110.4
2019-Jul-15 11:30N 55°57' W 004°53'1 1.3
2019-Jul-15 10:37N 55°57' W 004°51'110.2
2019-Jul-15 10:30N 55°57' W 004°53'1 0.2
2019-Jul-15 06:30N 55°57' W 004°51'1 0.0
2019-Jul-14 15:01N 55°57' W 004°52'110.3
2019-Jul-14 14:58N 55°57' W 004°53'0 0.4
2019-Jul-14 13:56N 55°57' W 004°54'1 1.4
2019-Jul-14 13:03N 55°57' W 004°52'210.1
2019-Jul-14 12:52N 55°57' W 004°55'2 0.1
2019-Jul-13 21:01N 55°57' W 004°52'010.7
2019-Jul-13 20:59N 55°57' W 004°53'0 0.2
2019-Jul-13 19:30N 55°57' W 004°52'1 0.7
2019-Jul-13 18:26N 55°57' W 004°54'0 0.5
2019-Jul-13 17:29N 55°57' W 004°53'2 2.6
2019-Jul-13 16:41N 55°58' W 004°49'210.3
2019-Jul-13 16:27N 55°57' W 004°53'1 0.7
2019-Jul-13 15:31N 55°57' W 004°52'110.2
2019-Jul-13 15:26N 55°57' W 004°54'1 0.1
2019-Jul-13 11:30N 55°57' W 004°53'2 2.6
2019-Jul-13 10:42N 55°58' W 004°49'210.2
2019-Jul-13 10:29N 55°57' W 004°53'1 1.0
2019-Jul-13 09:33N 55°57' W 004°51'110.4
2019-Jul-13 09:28N 55°57' W 004°53'1 1.3
2019-Jul-13 08:35N 55°57' W 004°51'210.7
2019-Jul-13 08:25N 55°57' W 004°54'1 1.3
2019-Jul-13 07:31N 55°57' W 004°52'110.5
2019-Jul-13 07:23N 55°57' W 004°55'1 1.0
2019-Jul-13 06:24N 55°57' W 004°53'1 0.1
2019-Jul-12 20:35N 55°57' W 004°55'1 1.2
2019-Jul-12 19:27N 55°57' W 004°53'0 0.1
2019-Jul-12 18:28N 55°57' W 004°53'2 3.2
2019-Jul-12 17:43N 55°58' W 004°49'310.6
2019-Jul-12 17:26N 55°57' W 004°54'2 1.9
2019-Jul-12 16:34N 55°58' W 004°51'110.4
2019-Jul-12 16:28N 55°57' W 004°53'1 0.7
2019-Jul-12 15:32N 55°57' W 004°52'110.3
2019-Jul-12 15:28N 55°57' W 004°53'2 1.6
2019-Jul-12 14:12N 55°58' W 004°50'210.1
2019-Jul-12 13:58N 55°57' W 004°54'1 0.8
2019-Jul-12 13:02N 55°57' W 004°52'0 9.7
2019-Jul-12 13:00N 55°57' W 004°53'1 0.8
2019-Jul-12 11:36N 55°57' W 004°51'210.0
2019-Jul-12 11:23N 55°57' W 004°55'0 0.4
2019-Jul-12 10:26N 55°57' W 004°54'1 1.1
2019-Jul-12 09:30N 55°57' W 004°53'0 0.2
2019-Jul-12 08:29N 55°57' W 004°53'0 0.2
2019-Jul-12 07:30N 55°57' W 004°53'0 0.3
2019-Jul-12 06:27N 55°57' W 004°52'1 0.1
2019-Jul-11 20:44N 55°57' W 004°54'2 1.8
2019-Jul-11 19:36N 55°58' W 004°51'210.8
2019-Jul-11 19:27N 55°57' W 004°53'1 1.0
2019-Jul-11 18:20N 55°57' W 004°55'2 2.4
2019-Jul-11 17:32N 55°57' W 004°52'110.9
2019-Jul-11 17:26N 55°57' W 004°54'0 0.4
2019-Jul-11 16:24N 55°57' W 004°54'0 0.4
2019-Jul-11 15:27N 55°57' W 004°54'1 0.2
2019-Jul-11 11:13N 55°57' W 004°55'1 1.0
2019-Jul-11 10:26N 55°57' W 004°54'2 2.1
2019-Jul-11 09:36N 55°58' W 004°51'111.1
2019-Jul-11 09:29N 55°57' W 004°53'0 0.4
2019-Jul-11 08:32N 55°57' W 004°52'110.5
2019-Jul-11 08:25N 55°57' W 004°54'1 1.6
2019-Jul-11 07:33N 55°57' W 004°52'210.8
2019-Jul-11 07:22N 55°57' W 004°55'3 3.3
2019-Jul-11 06:33N 55°58' W 004°51'210.9
2019-Jul-11 06:23N 55°57' W 004°53'0 0.0
2019-Jul-10 20:46N 55°57' W 004°53'1 0.7
2019-Jul-10 19:18N 55°57' W 004°55'2 2.0
2019-Jul-10 18:30N 55°57' W 004°53'1 0.7
2019-Jul-10 17:26N 55°57' W 004°54'1 0.8
2019-Jul-10 16:30N 55°57' W 004°53'1 1.0
2019-Jul-10 15:34N 55°58' W 004°51'111.0
2019-Jul-10 15:29N 55°57' W 004°53'1 0.4
2019-Jul-10 14:04N 55°57' W 004°52'210.8
2019-Jul-10 13:54N 55°57' W 004°55'1 0.9
2019-Jul-10 12:58N 55°57' W 004°54'0 0.2
2019-Jul-10 11:28N 55°57' W 004°53'1 1.7
2019-Jul-10 10:38N 55°58' W 004°51'110.9
2019-Jul-10 10:30N 55°57' W 004°53'1 0.8
2019-Jul-10 09:32N 55°57' W 004°52'110.5
2019-Jul-10 09:24N 55°57' W 004°54'3 4.3
2019-Jul-10 08:41N 55°58' W 004°49'210.9
2019-Jul-10 08:28N 55°57' W 004°53'1 1.1
2019-Jul-10 07:32N 55°57' W 004°52'111.1
2019-Jul-10 07:27N 55°57' W 004°53'1 1.2
2019-Jul-10 06:30N 55°58' W 004°52'1 1.0
2019-Jul-10 05:56N 55°58' W 004°51'1 0.1
2019-Jul-09 20:54N 55°58' W 004°51'0 0.1
2019-Jul-09 19:36N 55°58' W 004°51'110.6
2019-Jul-09 19:28N 55°57' W 004°53'0 0.4
2019-Jul-09 18:25N 55°57' W 004°54'1 0.9
2019-Jul-09 17:29N 55°57' W 004°52'1 0.8
2019-Jul-09 16:33N 55°58' W 004°51'111.2
2019-Jul-09 16:27N 55°57' W 004°53'0 0.4
2019-Jul-09 15:29N 55°57' W 004°53'1 0.2
2019-Jul-09 11:33N 55°58' W 004°51'111.3
2019-Jul-09 11:30N 55°57' W 004°52'1 1.0
2019-Jul-09 10:35N 55°58' W 004°51'110.8
2019-Jul-09 10:28N 55°57' W 004°53'1 1.1
2019-Jul-09 09:34N 55°57' W 004°51'110.8
2019-Jul-09 09:29N 55°57' W 004°53'1 1.5
2019-Jul-09 08:36N 55°58' W 004°51'110.1
2019-Jul-09 08:30N 55°57' W 004°52'1 1.1
2019-Jul-09 07:37N 55°58' W 004°51'110.6
2019-Jul-09 07:29N 55°57' W 004°53'1 1.3
2019-Jul-09 06:30N 55°58' W 004°51'0 0.6
2019-Jul-09 05:51N 55°58' W 004°51'2 0.2
2019-Jul-08 20:46N 55°57' W 004°53'1 0.9
2019-Jul-08 19:33N 55°57' W 004°51'010.1
2019-Jul-08 19:30N 55°57' W 004°52'1 1.1
2019-Jul-08 18:37N 55°58' W 004°51'2 9.7
2019-Jul-08 18:22N 55°57' W 004°55'2 2.2
2019-Jul-08 17:32N 55°57' W 004°52'110.1
2019-Jul-08 17:29N 55°57' W 004°53'1 0.8
2019-Jul-08 16:33N 55°58' W 004°51'010.5
2019-Jul-08 16:30N 55°57' W 004°52'1 0.9
2019-Jul-08 15:25N 55°57' W 004°54'0 0.2
2019-Jul-08 13:53N 55°57' W 004°55'2 2.2
2019-Jul-08 13:04N 55°57' W 004°51'110.8
2019-Jul-08 12:56N 55°57' W 004°54'2 1.3
2019-Jul-08 11:35N 55°58' W 004°51'110.8
2019-Jul-08 11:30N 55°57' W 004°52'1 1.1
2019-Jul-08 10:36N 55°58' W 004°51'110.5
2019-Jul-08 10:28N 55°57' W 004°53'2 2.1
2019-Jul-08 09:37N 55°58' W 004°50'210.6
2019-Jul-08 09:23N 55°57' W 004°54'1 1.7
2019-Jul-08 08:33N 55°57' W 004°52'1 9.4
2019-Jul-08 08:26N 55°57' W 004°54'1 1.7
2019-Jul-08 07:36N 55°57' W 004°51'210.6
2019-Jul-08 07:27N 55°57' W 004°54'0 0.3
2019-Jul-08 06:18N 55°57' W 004°54'2 0.1
2019-Jul-07 15:06N 55°58' W 004°51'110.0
2019-Jul-07 14:59N 55°57' W 004°53'1 1.5
2019-Jul-07 14:07N 55°58' W 004°50'210.2
2019-Jul-07 13:57N 55°57' W 004°53'0 0.0
2019-Jul-07 12:56N 55°57' W 004°53'1 0.1
2019-Jul-06 20:52N 55°57' W 004°52'1 0.4
2019-Jul-06 19:29N 55°57' W 004°52'1 0.7
2019-Jul-06 17:38N 55°58' W 004°50'110.1
2019-Jul-06 17:30N 55°57' W 004°52'0 0.2
2019-Jul-06 16:31N 55°57' W 004°52'110.2
2019-Jul-06 16:25N 55°57' W 004°54'1 1.1
2019-Jul-06 15:31N 55°57' W 004°52'0 9.8
2019-Jul-06 15:28N 55°57' W 004°53'1 0.3
2019-Jul-06 11:35N 55°58' W 004°51'110.8
2019-Jul-06 11:29N 55°57' W 004°53'1 0.6
2019-Jul-06 10:33N 55°57' W 004°52'210.6
2019-Jul-06 10:23N 55°57' W 004°55'  

Dump ship's entire track history